Time;durP1;ratioP1;P1;durP2;ratioP2;P2;SDS_P1;SDS_P2;PMS_P1;PMS_P2;Temp;Humidity;BMP_temperature;BMP_pressure;BME280_temperature;BME280_humidity;BME280_pressure;Samples;Min_cycle;Max_cycle;Signal;HPM_P1;HPM_P2
2024/02/06 00:00:38;;;;;;;23.65;7.75;;;;;;;7.67;100.00;99981.81;4984067;28;19956;-78
2024/02/06 00:03:04;;;;;;;21.97;8.37;;;;;;;7.71;100.00;99990.31;4976451;28;20034;-77
2024/02/06 00:05:29;;;;;;;25.48;8.25;;;;;;;7.63;100.00;99988.44;4991835;28;21280;-78
2024/02/06 00:07:54;;;;;;;25.03;8.27;;;;;;;7.78;100.00;100001.97;4968427;28;20026;-78
2024/02/06 00:10:20;;;;;;;21.80;8.23;;;;;;;7.58;100.00;99978.31;4982241;28;20096;-78
2024/02/06 00:12:46;;;;;;;27.10;9.43;;;;;;;7.58;100.00;99985.44;4967808;28;20062;-77
2024/02/06 00:15:11;;;;;;;26.05;8.38;;;;;;;7.74;100.00;99989.97;4979991;28;20047;-78
2024/02/06 00:17:37;;;;;;;20.35;7.45;;;;;;;7.67;100.00;99975.69;4967769;28;20030;-78
2024/02/06 00:20:03;;;;;;;19.20;8.23;;;;;;;7.62;100.00;99981.50;4977760;28;20035;-78
2024/02/06 00:22:28;;;;;;;20.55;7.70;;;;;;;7.59;100.00;99977.34;4967858;28;20039;-77
2024/02/06 00:24:54;;;;;;;15.57;6.88;;;;;;;7.62;100.00;99981.50;4967820;28;20026;-78
2024/02/06 00:27:19;;;;;;;20.55;8.05;;;;;;;7.60;100.00;99978.16;4977955;28;20045;-78
2024/02/06 00:29:45;;;;;;;15.90;6.43;;;;;;;7.60;100.00;99976.31;4993079;28;20513;-78
2024/02/06 00:32:11;;;;;;;17.97;7.37;;;;;;;7.66;100.00;99988.16;4966688;28;20121;-78
2024/02/06 00:34:36;;;;;;;;;;;;;;;7.64;100.00;99976.03;4975848;28;20086;-77
2024/02/06 00:37:02;;;;;;;26.83;8.25;;;;;;;7.60;100.00;99978.97;4967231;28;20389;-78
2024/02/06 00:39:27;;;;;;;21.20;9.20;;;;;;;7.59;100.00;99966.72;4966774;28;20034;-78
2024/02/06 00:41:52;;;;;;;20.33;8.67;;;;;;;7.59;100.00;99957.91;4983285;28;20281;-77
2024/02/06 00:44:19;;;;;;;22.57;8.87;;;;;;;7.67;100.00;99965.88;4966587;28;20034;-77
2024/02/06 00:46:44;;;;;;;27.05;8.88;;;;;;;7.73;100.00;99959.09;4966804;28;20038;-77
2024/02/06 00:49:10;;;;;;;24.65;9.48;;;;;;;7.57;100.00;99968.69;4982875;28;20414;-77
2024/02/06 00:51:35;;;;;;;22.90;9.37;;;;;;;7.58;100.00;99970.34;4966966;28;20129;-76
2024/02/06 00:54:00;;;;;;;27.17;8.80;;;;;;;7.64;100.00;99952.13;4986843;28;20065;-77
2024/02/06 00:56:26;;;;;;;20.13;9.20;;;;;;;7.56;100.00;99959.06;4978130;28;20286;-77
2024/02/06 00:58:51;;;;;;;15.13;7.63;;;;;;;7.58;100.00;99949.09;4970507;28;20126;-78
2024/02/06 01:01:16;;;;;;;28.23;8.67;;;;;;;7.55;100.00;99949.41;4970377;28;20082;-77
2024/02/06 01:03:42;;;;;;;19.73;8.10;;;;;;;7.65;100.00;99956.41;4970552;28;20038;-77
2024/02/06 01:06:09;;;;;;;28.30;9.67;;;;;;;7.64;100.00;99947.63;4999360;28;20034;-77
2024/02/06 01:08:34;;;;;;;19.60;8.05;;;;;;;7.58;100.00;99943.78;4971509;28;20085;-77
2024/02/06 01:10:59;;;;;;;28.47;9.63;;;;;;;7.64;100.00;99942.31;4969735;28;20657;-76
2024/02/06 01:13:25;;;;;;;31.93;9.23;;;;;;;7.61;100.00;99942.66;4969859;28;20402;-76
2024/02/06 01:15:50;;;;;;;26.67;9.10;;;;;;;7.65;100.00;99938.66;4998114;28;20034;-77
2024/02/06 01:18:16;;;;;;;26.40;8.10;;;;;;;7.67;100.00;99930.53;4975287;28;20113;-77
2024/02/06 01:20:41;;;;;;;22.57;8.43;;;;;;;7.64;100.00;99918.41;4963857;28;20053;-77
2024/02/06 01:23:06;;;;;;;21.87;8.97;;;;;;;7.72;100.00;99918.41;4994085;28;20039;-77
2024/02/06 01:25:32;;;;;;;22.70;7.93;;;;;;;7.67;100.00;99911.94;4970050;28;20035;-77
2024/02/06 01:27:57;;;;;;;20.55;8.15;;;;;;;7.80;100.00;99922.91;4969974;28;20042;-77
2024/02/06 01:30:23;;;;;;;25.13;7.67;;;;;;;7.62;100.00;99904.44;4985742;28;20035;-77
2024/02/06 01:32:48;;;;;;;25.30;9.73;;;;;;;7.55;100.00;99900.78;4997424;28;20027;-77
2024/02/06 01:35:13;;;;;;;30.77;10.13;;;;;;;7.64;100.00;99905.13;4985411;28;20155;-76
2024/02/06 01:37:39;;;;;;;16.73;7.87;;;;;;;7.67;100.00;99902.13;4969773;28;20046;-77
2024/02/06 01:40:05;;;;;;;22.40;9.70;;;;;;;7.57;100.00;99899.63;4969140;28;20030;-77
2024/02/06 01:42:30;;;;;;;;;;;;;;;7.59;100.00;99894.97;4974147;28;20038;-76
2024/02/06 01:44:55;;;;;;;30.15;9.45;;;;;;;7.57;100.00;99891.66;4973182;28;19921;-77
2024/02/06 01:47:21;;;;;;;27.93;7.80;;;;;;;7.61;100.00;99894.81;4970722;28;20038;-77
2024/02/06 01:49:47;;;;;;;27.15;9.35;;;;;;;7.64;100.00;99891.84;4969318;28;20334;-77
2024/02/06 01:52:13;;;;;;;20.75;7.30;;;;;;;7.76;100.00;99895.00;4996825;28;20068;-77
2024/02/06 01:54:39;;;;;;;27.63;8.73;;;;;;;7.73;100.00;99887.38;4988093;28;20027;-77
2024/02/06 01:57:05;;;;;;;29.58;8.63;;;;;;;7.69;100.00;99880.72;4966106;28;20344;-77
2024/02/06 01:59:30;;;;;;;24.80;7.55;;;;;;;7.58;100.00;99850.81;4969170;28;20402;-77
2024/02/06 02:01:57;;;;;;;25.10;8.45;;;;;;;7.69;100.00;99864.78;4968966;28;20035;-77
2024/02/06 02:04:22;;;;;;;26.95;8.32;;;;;;;7.72;100.00;99864.44;4981829;28;20039;-77
2024/02/06 02:06:48;;;;;;;31.67;8.30;;;;;;;7.75;100.00;99856.13;4984641;28;20045;-76
2024/02/06 02:09:13;;;;;;;23.77;7.85;;;;;;;7.75;100.00;99853.47;4968732;28;20050;-77
2024/02/06 02:11:38;;;;;;;19.07;7.27;;;;;;;7.70;100.00;99839.84;4968317;28;20133;-76
2024/02/06 02:14:04;;;;;;;26.27;8.43;;;;;;;7.71;100.00;99844.19;4997851;28;20034;-77
2024/02/06 02:16:29;;;;;;;18.80;6.95;;;;;;;7.71;100.00;99847.66;4977143;28;20038;-76
2024/02/06 02:18:56;;;;;;;22.23;7.97;;;;;;;7.74;100.00;99828.72;4968566;28;20042;-77
2024/02/06 02:21:21;;;;;;;;;;;;;;;7.75;100.00;99838.38;4973527;28;20034;-76
2024/02/06 02:23:47;;;;;;;21.02;8.93;;;;;;;7.76;100.00;99817.94;4984575;28;20005;-76
2024/02/06 02:26:16;;;;;;;21.88;8.63;;;;;;;7.83;100.00;99824.25;4968084;28;20112;-77
2024/02/06 02:28:42;;;;;;;24.35;8.32;;;;;;;7.81;100.00;99818.28;4968580;28;20128;-77
2024/02/06 02:31:09;;;;;;;26.85;7.72;;;;;;;7.76;100.00;99805.47;4968132;28;20046;-76
2024/02/06 02:33:35;;;;;;;20.95;6.20;;;;;;;7.80;100.00;99814.78;4984450;28;20063;-76
2024/02/06 02:36:07;;;;;;;23.92;7.90;;;;;;;7.85;100.00;99795.69;4969369;28;20026;-78
2024/02/06 02:38:34;;;;;;;32.22;7.47;;;;;;;7.78;100.00;99786.72;4968680;28;20038;-76
2024/02/06 02:41:00;;;;;;;17.88;7.22;;;;;;;7.78;100.00;99784.06;4984331;28;20853;-77
2024/02/06 02:43:25;;;;;;;16.52;6.57;;;;;;;7.80;100.00;99788.22;4983906;28;20026;-77
2024/02/06 02:45:51;;;;;;;21.80;7.17;;;;;;;7.75;100.00;99789.69;4968964;28;20027;-77
2024/02/06 02:48:16;;;;;;;23.33;8.85;;;;;;;7.85;100.00;99778.91;4967586;28;20078;-77
2024/02/06 02:50:41;;;;;;;25.33;7.17;;;;;;;7.86;100.00;99788.53;4982474;28;20053;-77
2024/02/06 02:53:07;;;;;;;27.43;6.17;;;;;;;7.94;100.00;99780.56;4951751;28;20293;-77
2024/02/06 02:55:33;;;;;;;26.57;6.93;;;;;;;7.87;100.00;99767.13;4989203;28;20031;-77
2024/02/06 02:57:59;;;;;;;30.10;8.27;;;;;;;7.86;100.00;99756.66;4984219;28;20125;-76
2024/02/06 03:00:25;;;;;;;19.33;7.53;;;;;;;7.94;100.00;99768.09;4970410;28;20026;-76
2024/02/06 03:02:50;;;;;;;22.45;7.00;;;;;;;7.77;100.00;99750.50;4979084;28;20133;-77
2024/02/06 03:05:16;;;;;;;33.70;8.40;;;;;;;7.94;100.00;99754.81;4978509;28;20092;-77
2024/02/06 03:07:41;;;;;;;24.40;7.30;;;;;;;7.95;100.00;99752.97;4975135;28;20045;-76
2024/02/06 03:10:07;;;;;;;18.67;6.50;;;;;;;7.90;100.00;99748.16;4969814;28;20034;-76
2024/02/06 03:12:32;;;;;;;16.50;6.53;;;;;;;7.97;100.00;99751.81;4967760;28;20018;-76
2024/02/06 03:15:02;;;;;;;21.08;6.68;;;;;;;7.98;100.00;99745.50;4967828;28;20035;-76
2024/02/06 03:17:28;;;;;;;24.70;7.00;;;;;;;7.86;100.00;99738.03;4991650;28;20041;-76
2024/02/06 03:19:53;;;;;;;25.93;6.63;;;;;;;7.81;100.00;99726.09;4967281;28;20022;-76
2024/02/06 03:22:24;;;;;;;21.60;6.68;;;;;;;7.87;100.00;99740.53;4967168;28;21024;-77
2024/02/06 03:24:49;;;;;;;22.45;7.40;;;;;;;7.83;100.00;99729.41;4967303;28;20030;-76
2024/02/06 03:27:18;;;;;;;25.53;7.33;;;;;;;7.90;100.00;99750.81;4981421;28;20037;-77
2024/02/06 03:29:43;;;;;;;27.45;7.60;;;;;;;7.85;100.00;99747.84;4967361;28;20085;-77
2024/02/06 03:32:09;;;;;;;20.65;7.18;;;;;;;7.95;100.00;99751.13;4967086;28;20026;-77
2024/02/06 03:34:35;;;;;;;26.33;6.72;;;;;;;7.94;100.00;99743.34;4967636;28;20042;-77
2024/02/06 03:37:01;;;;;;;20.33;7.07;;;;;;;7.90;100.00;99745.50;4967013;28;20026;-77
2024/02/06 03:39:26;;;;;;;17.98;6.93;;;;;;;7.88;100.00;99731.56;4970599;28;20115;-78
2024/02/06 03:41:52;;;;;;;28.10;7.85;;;;;;;7.92;100.00;99740.03;4996164;28;20062;-77
2024/02/06 03:44:18;;;;;;;32.50;6.80;;;;;;;7.82;100.00;99722.44;4967175;28;20470;-77
2024/02/06 03:46:43;;;;;;;19.65;6.20;;;;;;;7.88;100.00;99736.06;4966770;28;20039;-78
2024/02/06 03:49:09;;;;;;;15.97;7.17;;;;;;;7.91;100.00;99725.88;4967413;28;20019;-76
2024/02/06 03:51:34;;;;;;;21.98;8.90;;;;;;;7.89;100.00;99737.69;4992128;28;20148;-77
2024/02/06 03:53:59;;;;;;;22.67;6.43;;;;;;;7.90;100.00;99729.56;4967531;28;20113;-77
2024/02/06 03:56:25;;;;;;;16.43;6.07;;;;;;;7.90;100.00;99729.56;4966538;28;20034;-77
2024/02/06 03:58:50;;;;;;;28.63;8.60;;;;;;;7.92;100.00;99727.56;4967155;28;20475;-77
2024/02/06 04:01:16;;;;;;;26.70;7.37;;;;;;;7.94;100.00;99724.75;4966234;28;20469;-78
2024/02/06 04:03:42;;;;;;;24.90;7.65;;;;;;;7.86;100.00;99714.94;4966922;28;20031;-77
2024/02/06 04:06:07;;;;;;;20.50;8.23;;;;;;;7.86;100.00;99722.91;4975328;28;20398;-76
2024/02/06 04:08:33;;;;;;;29.13;7.32;;;;;;;7.93;100.00;99731.88;4999441;28;20065;-76
2024/02/06 04:10:58;;;;;;;25.45;7.57;;;;;;;7.94;100.00;99730.88;4967662;28;20030;-77
2024/02/06 04:13:24;;;;;;;23.10;6.03;;;;;;;7.89;100.00;99730.56;4967043;28;20034;-77
2024/02/06 04:15:49;;;;;;;20.30;6.10;;;;;;;7.90;100.00;99726.09;4982688;28;20030;-77
2024/02/06 04:18:15;;;;;;;17.43;6.80;;;;;;;7.94;100.00;99725.56;4968010;28;20536;-78
2024/02/06 04:20:40;;;;;;;15.77;6.53;;;;;;;7.90;100.00;99726.91;4973033;28;20037;-77
2024/02/06 04:23:06;;;;;;;25.60;6.53;;;;;;;7.82;100.00;99706.50;4974945;28;20274;-77
2024/02/06 04:25:31;;;;;;;;;;;;;;;7.97;100.00;99713.75;4971691;28;20069;-77
2024/02/06 04:27:57;;;;;;;21.83;7.47;;;;;;;7.91;100.00;99715.25;4966807;28;19954;-77
2024/02/06 04:30:23;;;;;;;24.13;6.70;;;;;;;7.96;100.00;99712.09;4966296;28;20026;-77
2024/02/06 04:32:51;;;;;;;24.13;6.25;;;;;;;7.92;100.00;99711.63;4966695;28;20039;-77
2024/02/06 04:35:19;;;;;;;27.90;8.02;;;;;;;8.05;100.00;99711.06;4967164;28;20506;-77
2024/02/06 04:37:44;;;;;;;23.00;7.10;;;;;;;8.00;100.00;99695.63;4966723;28;20125;-78
2024/02/06 04:40:10;;;;;;;17.67;6.88;;;;;;;7.95;100.00;99695.31;4950712;28;20130;-77
2024/02/06 04:42:36;;;;;;;23.50;6.25;;;;;;;7.92;100.00;99693.00;4999135;28;20057;-77
2024/02/06 04:45:03;;;;;;;20.90;6.13;;;;;;;7.91;100.00;99693.19;4967873;28;20066;-78
2024/02/06 04:47:28;;;;;;;20.80;5.55;;;;;;;7.98;100.00;99689.69;4966749;28;20027;-77
2024/02/06 04:49:57;;;;;;;13.88;5.53;;;;;;;7.94;100.00;99693.69;4998334;28;20818;-77
2024/02/06 04:52:23;;;;;;;19.92;5.88;;;;;;;7.93;100.00;99676.06;4966117;28;20039;-76
2024/02/06 04:54:48;;;;;;;17.83;5.70;;;;;;;7.90;100.00;99680.91;4966544;28;20529;-77
2024/02/06 04:57:14;;;;;;;18.15;6.65;;;;;;;7.92;100.00;99652.31;4995343;28;20034;-77
2024/02/06 04:59:40;;;;;;;23.17;7.10;;;;;;;8.07;100.00;99686.97;4966301;28;20058;-77
2024/02/06 05:02:08;;;;;;;17.92;5.93;;;;;;;7.91;100.00;99667.41;4965936;28;20454;-77
2024/02/06 05:04:33;;;;;;;14.13;5.53;;;;;;;8.00;100.00;99676.19;4990966;28;20651;-76
2024/02/06 05:06:58;;;;;;;17.33;6.45;;;;;;;8.01;100.00;99670.72;4966092;28;20057;-76
2024/02/06 05:09:24;;;;;;;26.50;6.87;;;;;;;7.92;100.00;99663.78;4966357;28;20839;-77
2024/02/06 05:11:49;;;;;;;21.73;7.27;;;;;;;7.95;100.00;99666.09;4981857;28;20583;-77
2024/02/06 05:14:15;;;;;;;16.77;5.90;;;;;;;8.01;100.00;99651.28;4974333;28;20470;-76
2024/02/06 05:16:40;;;;;;;21.63;5.90;;;;;;;7.98;100.00;99652.47;4983605;28;20406;-76
2024/02/06 05:19:07;;;;;;;23.87;6.30;;;;;;;8.04;100.00;99648.28;4974810;28;20085;-77
2024/02/06 05:21:32;;;;;;;17.27;6.10;;;;;;;8.05;100.00;99633.97;4965486;28;20041;-77
2024/02/06 05:23:58;;;;;;;21.97;7.37;;;;;;;8.12;100.00;99642.09;4966125;28;20031;-77
2024/02/06 05:26:23;;;;;;;21.75;6.32;;;;;;;8.13;100.00;99638.44;4981940;28;20031;-77
2024/02/06 05:28:49;;;;;;;25.98;6.75;;;;;;;8.08;100.00;99614.19;4967371;28;20129;-77
2024/02/06 05:31:14;;;;;;;22.63;8.53;;;;;;;8.13;100.00;99618.00;4965287;28;20624;-77
2024/02/06 05:33:39;;;;;;;23.17;7.07;;;;;;;8.07;100.00;99607.22;4977371;28;20471;-77
2024/02/06 05:36:05;;;;;;;21.23;6.40;;;;;;;8.07;100.00;99604.56;4965121;28;20039;-77
2024/02/06 05:38:32;;;;;;;22.05;6.50;;;;;;;8.14;100.00;99606.34;4960821;28;20085;-77
2024/02/06 05:40:57;;;;;;;24.50;6.23;;;;;;;8.13;100.00;99593.25;4985305;28;20125;-77
2024/02/06 05:43:23;;;;;;;20.53;7.33;;;;;;;8.25;100.00;99595.31;4969277;28;20041;-77
2024/02/06 05:45:48;;;;;;;27.75;6.53;;;;;;;8.23;100.00;99586.69;4970111;28;20410;-77
2024/02/06 05:48:13;;;;;;;19.40;5.07;;;;;;;8.21;100.00;99562.09;4968968;28;20027;-77
2024/02/06 05:50:39;;;;;;;18.23;5.90;;;;;;;8.30;100.00;99559.41;4994554;28;20041;-77
2024/02/06 05:53:04;;;;;;;20.60;7.47;;;;;;;8.08;100.00;99556.56;4969631;28;20033;-77
2024/02/06 05:55:29;;;;;;;17.17;6.17;;;;;;;8.20;100.00;99560.47;5000976;28;20478;-77
2024/02/06 05:57:55;;;;;;;16.37;5.30;;;;;;;8.19;100.00;99564.16;4969058;28;20129;-76
2024/02/06 06:00:20;;;;;;;17.23;5.40;;;;;;;8.15;100.00;99562.00;4976441;28;20309;-76
2024/02/06 06:02:46;;;;;;;21.02;6.05;;;;;;;8.15;100.00;99564.66;4968919;28;20039;-77
2024/02/06 06:05:11;;;;;;;21.73;5.97;;;;;;;8.21;100.00;99571.94;4992953;28;20027;-76
2024/02/06 06:07:36;;;;;;;19.45;6.10;;;;;;;8.28;100.00;99564.91;4968506;28;20035;-76
2024/02/06 06:10:02;;;;;;;24.63;6.83;;;;;;;8.28;100.00;99554.25;4980629;28;20425;-75
2024/02/06 06:12:27;;;;;;;18.33;5.70;;;;;;;8.27;100.00;99547.31;4968194;28;20031;-77
2024/02/06 06:14:53;;;;;;;23.80;5.63;;;;;;;8.28;100.00;99546.28;4968428;28;20042;-76
2024/02/06 06:17:18;;;;;;;21.27;5.30;;;;;;;8.29;100.00;99542.63;4998619;28;20026;-77
2024/02/06 06:19:43;;;;;;;20.67;6.90;;;;;;;8.20;100.00;99522.44;4968372;28;20030;-77
2024/02/06 06:22:09;;;;;;;13.60;6.23;;;;;;;8.32;100.00;99541.44;4975928;28;20041;-76
2024/02/06 06:24:34;;;;;;;22.75;6.78;;;;;;;8.20;100.00;99538.38;4969145;28;20085;-77
2024/02/06 06:27:00;;;;;;;17.10;5.87;;;;;;;8.24;100.00;99535.19;4967806;28;20027;-76
2024/02/06 06:29:25;;;;;;;27.63;6.47;;;;;;;8.39;100.00;99537.91;4963991;28;20086;-76
2024/02/06 06:31:50;;;;;;;17.90;6.17;;;;;;;8.35;100.00;99525.13;4990100;28;20119;-76
2024/02/06 06:34:16;;;;;;;13.80;5.43;;;;;;;8.31;100.00;99521.16;4967687;28;20278;-76
2024/02/06 06:36:41;;;;;;;16.40;6.10;;;;;;;8.27;100.00;99507.41;4984095;28;20034;-75
2024/02/06 06:39:08;;;;;;;19.90;6.47;;;;;;;8.36;100.00;99519.66;4996918;28;20026;-76
2024/02/06 06:41:34;;;;;;;24.67;6.80;;;;;;;8.42;100.00;99513.63;4954914;28;20023;-76
2024/02/06 06:43:59;;;;;;;21.33;6.15;;;;;;;8.42;100.00;99502.97;4967962;28;20548;-77
2024/02/06 06:46:25;;;;;;;19.52;5.43;;;;;;;8.43;100.00;99496.69;4980236;28;20601;-75
2024/02/06 06:48:50;;;;;;;24.97;6.23;;;;;;;8.41;100.00;99482.72;4962008;28;20033;-75
2024/02/06 06:51:15;;;;;;;26.07;5.73;;;;;;;8.35;100.00;99483.41;4966699;28;20093;-76
2024/02/06 06:53:41;;;;;;;17.83;6.73;;;;;;;8.50;100.00;99495.94;4983479;28;20035;-77
2024/02/06 06:56:18;;;;;;;34.08;7.68;;;;;;;8.45;100.00;99492.00;4967330;28;20041;-76
2024/02/06 06:58:44;;;;;;;24.23;6.68;;;;;;;8.56;100.00;99505.88;4968584;28;20026;-77
2024/02/06 07:01:09;;;;;;;20.52;7.38;;;;;;;8.41;100.00;99489.88;4968271;28;20089;-76
2024/02/06 07:03:35;;;;;;;29.45;6.53;;;;;;;8.56;100.00;99512.00;4983831;28;20045;-76
2024/02/06 07:06:01;;;;;;;29.67;7.80;;;;;;;8.53;100.00;99517.72;4999797;28;20022;-76
2024/02/06 07:08:26;;;;;;;18.52;7.22;;;;;;;8.41;100.00;99506.66;4967751;28;20089;-76
2024/02/06 07:10:51;;;;;;;16.10;5.07;;;;;;;8.50;100.00;99527.88;4964906;28;20553;-76
2024/02/06 07:13:17;;;;;;;34.47;7.20;;;;;;;8.47;100.00;99521.06;4967052;28;20289;-76
2024/02/06 07:15:42;;;;;;;23.42;6.47;;;;;;;8.40;100.00;99528.94;4982973;28;20046;-76
2024/02/06 07:18:08;;;;;;;21.95;7.60;;;;;;;8.39;100.00;99519.28;4967039;28;20449;-76
2024/02/06 07:20:33;;;;;;;23.53;6.80;;;;;;;8.47;100.00;99533.53;4983267;28;20498;-76
2024/02/06 07:22:58;;;;;;;22.63;5.90;;;;;;;8.41;100.00;99504.00;4968142;28;20019;-76
2024/02/06 07:25:24;;;;;;;28.67;6.57;;;;;;;8.37;100.00;99515.16;4968018;28;20035;-76
2024/02/06 07:27:49;;;;;;;21.30;5.93;;;;;;;8.49;100.00;99520.91;4982868;28;20522;-76
2024/02/06 07:30:15;;;;;;;23.30;5.73;;;;;;;8.48;100.00;99527.25;4967593;28;20125;-76
2024/02/06 07:32:40;;;;;;;23.85;6.85;;;;;;;8.45;100.00;99523.94;4964584;28;20286;-76
2024/02/06 07:35:07;;;;;;;19.00;5.13;;;;;;;8.37;100.00;99523.13;4982556;28;20037;-76
2024/02/06 07:37:32;;;;;;;21.20;5.35;;;;;;;8.40;100.00;99520.94;4966262;28;20042;-75
2024/02/06 07:39:57;;;;;;;20.13;5.40;;;;;;;8.52;100.00;99525.84;4966051;28;20038;-76
2024/02/06 07:42:23;;;;;;;24.87;6.63;;;;;;;8.51;100.00;99492.28;4966347;28;20501;-75
2024/02/06 07:44:48;;;;;;;22.33;4.93;;;;;;;8.53;100.00;99483.13;4982184;28;20022;-77
2024/02/06 07:47:13;;;;;;;22.63;6.10;;;;;;;8.61;100.00;99491.00;4943102;28;20054;-78
2024/02/06 07:49:39;;;;;;;24.33;4.57;;;;;;;8.68;100.00;99469.84;4966606;28;20497;-76
2024/02/06 07:52:05;;;;;;;25.58;5.55;;;;;;;8.63;100.00;99449.09;4973595;28;20080;-76
2024/02/06 07:54:30;;;;;;;22.85;5.13;;;;;;;8.68;100.00;99434.44;4959091;28;20038;-77
2024/02/06 07:56:55;;;;;;;31.45;5.05;;;;;;;8.69;100.00;99428.13;4966404;28;20102;-78
2024/02/06 07:59:21;;;;;;;18.63;4.77;;;;;;;8.76;100.00;99413.06;4967212;28;20185;-76
2024/02/06 08:01:47;;;;;;;20.90;5.07;;;;;;;8.76;100.00;99405.91;4966096;28;20034;-76
2024/02/06 08:04:13;;;;;;;13.98;6.03;;;;;;;8.77;100.00;99401.41;4958593;28;20039;-77
2024/02/06 08:06:38;;;;;;;15.80;4.63;;;;;;;8.78;100.00;99387.06;4963538;28;20049;-76
2024/02/06 08:09:05;;;;;;;15.70;4.13;;;;;;;8.82;100.00;99372.41;4965746;28;20163;-77
2024/02/06 08:11:31;;;;;;;19.42;4.82;;;;;;;8.85;100.00;99369.38;4965743;28;20061;-76
2024/02/06 08:13:56;;;;;;;20.40;4.72;;;;;;;8.76;100.00;99350.03;4987964;28;20035;-76
2024/02/06 08:16:22;;;;;;;22.27;6.97;;;;;;;8.90;100.00;99358.16;4975319;28;20037;-76
2024/02/06 08:18:48;;;;;;;20.50;5.27;;;;;;;8.89;100.00;99349.34;4965914;28;20109;-76
2024/02/06 08:21:13;;;;;;;27.95;5.07;;;;;;;8.93;100.00;99341.84;4994175;28;20482;-76
2024/02/06 08:23:39;;;;;;;18.83;4.75;;;;;;;8.96;100.00;99346.78;4965601;28;20050;-77
2024/02/06 08:26:04;;;;;;;24.23;5.47;;;;;;;8.91;100.00;99333.22;4966484;28;20038;-76
2024/02/06 08:28:29;;;;;;;16.03;4.10;;;;;;;8.92;100.00;99335.69;4965206;28;20042;-76
2024/02/06 08:30:55;;;;;;;15.17;3.97;;;;;;;8.84;100.00;99328.63;4961021;28;20066;-76
2024/02/06 08:33:20;;;;;;;14.20;5.03;;;;;;;8.90;100.00;99335.06;4962057;28;20046;-76
2024/02/06 08:35:51;;;;;;;23.60;4.90;;;;;;;8.89;100.00;99312.09;4969610;28;20133;-76
2024/02/06 08:38:18;;;;;;;17.45;4.50;;;;;;;8.90;100.00;99316.41;4949641;28;20043;-77
2024/02/06 08:40:44;;;;;;;18.80;4.45;;;;;;;8.98;100.00;99328.78;4966343;28;20507;-75
2024/02/06 08:43:09;;;;;;;25.57;4.63;;;;;;;9.05;100.00;99303.88;4978227;28;20129;-75
2024/02/06 08:45:37;;;;;;;14.20;5.70;;;;;;;9.02;100.00;99316.75;4970856;28;20070;-76
2024/02/06 08:48:03;;;;;;;19.48;4.63;;;;;;;8.94;100.00;99291.06;4976968;28;20026;-77
2024/02/06 08:50:33;;;;;;;16.65;5.18;;;;;;;9.05;100.00;99300.41;4965228;28;20031;-77
2024/02/06 08:52:58;;;;;;;17.05;5.03;;;;;;;9.12;100.00;99288.00;4997819;28;20516;-76
2024/02/06 08:55:24;;;;;;;16.65;4.05;;;;;;;9.12;100.00;99292.50;4964857;28;20066;-76
2024/02/06 08:57:50;;;;;;;15.68;4.25;;;;;;;9.11;100.00;99299.66;4967522;28;20038;-75
2024/02/06 09:00:16;;;;;;;12.90;4.33;;;;;;;9.13;100.00;99297.66;4971272;28;20046;-77
2024/02/06 09:02:42;;;;;;;22.52;5.03;;;;;;;9.07;100.00;99293.88;4985718;28;20049;-77
2024/02/06 09:05:08;;;;;;;13.35;4.07;;;;;;;9.16;100.00;99307.91;4949173;28;20027;-77
2024/02/06 09:07:33;;;;;;;21.20;3.72;;;;;;;9.01;100.00;99297.31;4964849;28;20089;-77
2024/02/06 09:09:59;;;;;;;11.43;3.83;;;;;;;9.01;100.00;99333.72;4988567;28;20035;-76
2024/02/06 09:12:28;;;;;;;19.23;4.97;;;;;;;8.93;100.00;99321.38;4963206;28;20031;-76
2024/02/06 09:14:55;;;;;;;26.27;5.13;;;;;;;8.99;100.00;99330.44;4968790;28;20112;-79
2024/02/06 09:17:21;;;;;;;21.48;5.03;;;;;;;9.07;100.00;99327.66;4993306;28;20097;-77
2024/02/06 09:19:47;;;;;;;18.77;3.65;;;;;;;8.96;100.00;99320.16;4952872;28;20028;-76
2024/02/06 09:22:12;;;;;;;20.93;4.53;;;;;;;8.95;100.00;99337.16;4977763;28;20608;-76
2024/02/06 09:24:37;;;;;;;34.50;4.87;;;;;;;9.01;100.00;99339.06;4968614;28;20035;-77
2024/02/06 09:27:03;;;;;;;22.37;4.20;;;;;;;8.85;100.00;99343.59;4972632;28;20112;-77
2024/02/06 09:29:28;;;;;;;18.17;4.32;;;;;;;8.98;100.00;99356.22;4983131;28;20116;-77
2024/02/06 09:31:54;;;;;;;16.60;4.30;;;;;;;8.96;100.00;99346.78;4968185;28;20394;-76
2024/02/06 09:34:20;;;;;;;17.43;4.90;;;;;;;8.88;100.00;99348.53;4968754;28;20129;-77
2024/02/06 09:36:46;;;;;;;19.58;5.30;;;;;;;8.88;100.00;99358.38;4964621;28;20039;-76
2024/02/06 09:39:12;;;;;;;18.77;4.40;;;;;;;9.03;100.00;99350.34;4976971;28;20039;-76
2024/02/06 09:41:39;;;;;;;18.10;4.50;;;;;;;8.94;100.00;99359.44;4972784;28;20113;-77
2024/02/06 09:44:05;;;;;;;11.13;3.65;;;;;;;8.95;100.00;99355.78;4970350;28;20333;-76
2024/02/06 09:46:31;;;;;;;22.83;4.97;;;;;;;8.99;100.00;99389.00;4968124;28;20039;-76
2024/02/06 09:48:56;;;;;;;24.67;5.87;;;;;;;9.04;100.00;99410.59;4975009;28;20027;-77
2024/02/06 09:51:23;;;;;;;16.07;4.57;;;;;;;8.87;100.00;99432.06;4987634;28;20274;-77
2024/02/06 09:53:49;;;;;;;20.80;5.65;;;;;;;8.81;100.00;99462.06;4966134;28;20423;-76
2024/02/06 09:56:15;;;;;;;15.65;4.38;;;;;;;8.72;100.00;99476.47;4964517;28;20540;-76
2024/02/06 09:58:41;;;;;;;23.35;4.72;;;;;;;8.73;100.00;99494.06;4985560;28;20031;-75
2024/02/06 10:01:11;;;;;;;27.20;4.82;;;;;;;8.71;100.00;99498.78;4969340;28;20387;-76
2024/02/06 10:03:39;;;;;;;15.88;4.57;;;;;;;8.68;100.00;99509.75;4964053;28;20046;-76
2024/02/06 10:06:07;;;;;;;16.27;5.47;;;;;;;8.63;100.00;99506.81;4944912;28;20108;-76
2024/02/06 10:08:32;;;;;;;22.00;5.50;;;;;;;8.43;100.00;99507.31;4976012;28;20034;-76
2024/02/06 10:11:00;;;;;;;18.83;6.63;;;;;;;8.70;100.00;99530.88;4987260;28;20375;-76
2024/02/06 10:13:26;;;;;;;22.95;5.10;;;;;;;8.62;100.00;99521.94;4964954;28;20031;-77
2024/02/06 10:15:52;;;;;;;15.25;5.07;;;;;;;8.63;100.00;99517.44;4984956;28;20375;-76
2024/02/06 10:18:17;;;;;;;16.97;4.70;;;;;;;8.65;100.00;99510.13;4976862;28;20042;-77
2024/02/06 10:20:47;;;;;;;16.03;4.83;;;;;;;8.70;100.00;99523.72;4964578;28;20297;-76
2024/02/06 10:23:17;;;;;;;16.75;4.72;;;;;;;8.76;100.00;99524.84;4989081;28;20027;-77
2024/02/06 10:25:43;;;;;;;14.68;4.10;;;;;;;8.65;100.00;99521.59;4952260;28;20113;-77
2024/02/06 10:28:09;;;;;;;16.63;5.72;;;;;;;8.75;100.00;99518.66;4968976;28;20194;-77
2024/02/06 10:30:35;;;;;;;22.83;4.50;;;;;;;8.58;100.00;99501.22;4949206;28;20050;-77
2024/02/06 10:33:14;;;;;;;22.98;4.60;;;;;;;8.71;100.00;99522.72;4969132;28;20066;-76
2024/02/06 10:35:40;;;;;;;15.25;4.00;;;;;;;8.70;100.00;99501.59;4976003;28;20027;-76
2024/02/06 10:38:11;;;;;;;14.98;4.50;;;;;;;8.66;100.00;99506.44;4969078;28;20409;-77
2024/02/06 10:40:38;;;;;;;17.08;4.72;;;;;;;8.72;100.00;99505.72;4974313;28;20094;-76
2024/02/06 10:43:04;;;;;;;17.55;4.57;;;;;;;8.69;100.00;99500.78;4990996;28;20035;-77
2024/02/06 10:45:30;;;;;;;15.45;3.92;;;;;;;8.65;100.00;99510.94;4972238;28;20049;-77
2024/02/06 10:47:59;;;;;;;12.52;4.05;;;;;;;8.65;100.00;99502.13;5002038;28;20035;-76
2024/02/06 10:50:28;;;;;;;18.55;5.53;;;;;;;8.72;100.00;99502.25;4968194;28;20039;-76
2024/02/06 10:52:55;;;;;;;20.17;4.05;;;;;;;8.68;100.00;99498.28;4985311;28;20070;-79
2024/02/06 10:55:22;;;;;;;16.23;4.47;;;;;;;8.77;100.00;99516.66;4965691;28;20080;-76
2024/02/06 10:57:47;;;;;;;;;;;;;;;8.75;100.00;99496.56;4963265;28;20058;-76
2024/02/06 11:00:18;;;;;;;19.52;5.13;;;;;;;8.71;100.00;99474.81;4997503;28;19910;-76
2024/02/06 11:02:51;;;;;;;18.40;4.38;;;;;;;8.82;100.00;99473.53;4970866;28;20033;-76
2024/02/06 11:05:48;;;;;;;14.20;5.45;;;;;;;8.88;100.00;99478.97;4970413;28;20090;-77
2024/02/06 11:08:16;;;;;;;11.85;3.65;;;;;;;9.03;100.00;99470.16;4981298;28;21063;-76
2024/02/06 11:10:45;;;;;;;18.42;4.60;;;;;;;9.02;100.00;99450.69;4970503;28;20030;-76
2024/02/06 11:13:22;;;;;;;20.88;3.75;;;;;;;8.81;100.00;99424.81;4993271;28;20037;-76
2024/02/06 11:15:51;;;;;;;14.48;4.00;;;;;;;8.94;100.00;99431.31;4980718;28;20042;-76
2024/02/06 11:18:19;;;;;;;13.65;4.57;;;;;;;8.95;100.00;99440.97;4970700;28;20082;-76
2024/02/06 11:20:49;;;;;;;19.38;4.63;;;;;;;8.80;100.00;99422.31;4952610;28;20138;-77